createdAt,value
2018-07-23T00:01:27.631Z,97321.72
2018-07-23T00:03:56.607Z,97316.01
2018-07-23T00:06:25.193Z,97313.17
2018-07-23T00:08:53.787Z,97314.59
2018-07-23T00:11:22.719Z,97313.17
2018-07-23T00:13:51.308Z,97310.59
2018-07-23T00:16:19.864Z,97315.74
2018-07-23T00:18:48.457Z,97314.34
2018-07-23T00:21:17.038Z,97313.52
2018-07-23T00:23:45.622Z,97313.05
2018-07-23T00:26:14.553Z,97311.88
2018-07-23T00:28:43.119Z,97311.86
2018-07-23T00:31:11.704Z,97311.39
2018-07-23T00:33:40.423Z,97314.66
2018-07-23T00:36:09.007Z,97317.83
2018-07-23T00:38:37.572Z,97321.09
2018-07-23T00:41:06.432Z,97321.28
2018-07-23T00:43:35.256Z,97318.91
2018-07-23T00:46:03.889Z,97316.80
2018-07-23T00:48:32.606Z,97317.48
2018-07-23T00:51:01.188Z,97314.25
2018-07-23T00:53:29.724Z,97315.33
2018-07-23T00:55:58.723Z,97311.00
2018-07-23T00:58:27.551Z,97311.94
2018-07-23T01:00:56.119Z,97313.34
2018-07-23T01:03:24.847Z,97320.84
2018-07-23T01:05:53.424Z,97325.83
2018-07-23T01:08:21.999Z,97321.20
2018-07-23T01:10:51.202Z,97323.41
2018-07-23T01:13:20.235Z,97323.04
2018-07-23T01:15:48.787Z,97323.87
2018-07-23T01:18:17.357Z,97322.95
2018-07-23T01:20:45.935Z,97312.20
2018-07-23T01:23:14.491Z,97311.84
2018-07-23T01:25:43.405Z,97325.52
2018-07-23T01:28:11.984Z,97324.08
2018-07-23T01:30:40.629Z,97325.52
2018-07-23T01:33:09.528Z,97317.06
2018-07-23T01:35:38.357Z,97312.19
2018-07-23T01:38:07.117Z,97318.61
2018-07-23T01:40:35.801Z,97318.69
2018-07-23T01:43:04.379Z,97319.05
2018-07-23T01:45:32.952Z,97322.63
2018-07-23T01:48:01.638Z,97317.63
2018-07-23T01:50:30.480Z,97312.36
2018-07-23T01:52:59.013Z,97314.03
2018-07-23T01:55:27.740Z,97315.53
2018-07-23T01:57:56.328Z,97318.30
2018-07-23T02:00:24.890Z,97313.98
2018-07-23T02:02:53.903Z,97318.45
2018-07-23T02:05:22.491Z,97322.22
2018-07-23T02:07:51.080Z,97325.35
2018-07-23T02:10:19.764Z,97326.85
2018-07-23T02:12:48.339Z,97328.59
2018-07-23T02:15:16.871Z,97323.45
2018-07-23T02:17:45.583Z,97325.78
2018-07-23T02:20:14.135Z,97324.74
2018-07-23T02:22:42.724Z,97322.52
2018-07-23T02:25:11.445Z,97326.41
2018-07-23T02:27:40.009Z,97324.21
2018-07-23T02:30:08.609Z,97323.58
2018-07-23T02:32:37.327Z,97321.64
2018-07-23T02:35:06.204Z,97322.95
2018-07-23T02:37:34.772Z,97321.73
2018-07-23T02:40:03.496Z,97324.52
2018-07-23T02:42:32.048Z,97324.88
2018-07-23T02:45:00.765Z,97328.28
2018-07-23T02:47:29.399Z,97328.59
2018-07-23T02:49:57.959Z,97332.25
2018-07-23T02:52:29.569Z,97334.25
2018-07-23T02:54:58.232Z,97336.03
2018-07-23T02:57:26.784Z,97333.32
2018-07-23T02:59:55.788Z,97335.19
2018-07-23T03:02:25.084Z,97332.81
2018-07-23T03:04:53.620Z,97335.45
2018-07-23T03:07:22.304Z,97333.47
2018-07-23T03:09:50.848Z,97339.41
2018-07-23T03:12:19.387Z,97335.71
2018-07-23T03:14:48.107Z,97334.92
2018-07-23T03:17:16.663Z,97339.84
2018-07-23T03:19:45.225Z,97340.33
2018-07-23T03:22:13.881Z,97340.30
2018-07-23T03:24:42.432Z,97340.91
2018-07-23T03:27:10.973Z,97350.38
2018-07-23T03:29:39.560Z,97348.27
2018-07-23T03:32:08.169Z,97348.52
2018-07-23T03:34:36.835Z,97351.02
2018-07-23T03:37:05.411Z,97352.33
2018-07-23T03:39:33.991Z,97356.42
2018-07-23T03:42:02.599Z,97357.30
2018-07-23T03:44:31.176Z,97360.16
2018-07-23T03:46:59.838Z,97366.00
2018-07-23T03:49:28.407Z,97360.19
2018-07-23T03:51:57.300Z,97362.52
2018-07-23T03:54:25.872Z,97368.56
2018-07-23T03:56:54.464Z,97373.68
2018-07-23T03:59:23.068Z,97366.67
2018-07-23T04:01:51.656Z,97369.58
2018-07-23T04:04:20.236Z,97368.81
2018-07-23T04:06:49.556Z,97364.47
2018-07-23T04:09:18.162Z,97365.39
2018-07-23T04:11:46.772Z,97366.09
2018-07-23T04:14:15.732Z,97369.89
2018-07-23T04:16:44.318Z,97367.13
2018-07-23T04:19:12.913Z,97367.11
2018-07-23T04:21:41.495Z,97373.23
2018-07-23T04:24:10.032Z,97375.36
2018-07-23T04:26:38.579Z,97380.20
2018-07-23T04:29:07.204Z,97386.52
2018-07-23T04:31:35.851Z,97388.45
2018-07-23T04:34:04.460Z,97390.89
2018-07-23T04:36:33.139Z,97385.36
2018-07-23T04:39:01.704Z,97395.33
2018-07-23T04:41:30.275Z,97395.07
2018-07-23T04:43:58.955Z,97389.77
2018-07-23T04:46:27.520Z,97392.58
2018-07-23T04:48:56.195Z,97403.36
2018-07-23T04:51:25.056Z,97402.66
2018-07-23T04:53:53.621Z,97403.98
2018-07-23T04:56:22.159Z,97409.14
2018-07-23T04:58:50.807Z,97416.86
2018-07-23T05:01:19.360Z,97409.36
2018-07-23T05:03:47.928Z,97409.75
2018-07-23T05:06:16.803Z,97417.23
2018-07-23T05:08:45.430Z,97416.41
2018-07-23T05:11:13.987Z,97415.13
2018-07-23T05:13:42.700Z,97415.98
2018-07-23T05:16:11.262Z,97419.75
2018-07-23T05:18:39.825Z,97411.79
2018-07-23T05:21:08.778Z,97423.47
2018-07-23T05:23:37.428Z,97418.02
2018-07-23T05:26:06.380Z,97421.97
2018-07-23T05:28:34.988Z,97420.75
2018-07-23T05:31:03.535Z,97421.84
2018-07-23T05:33:32.108Z,97419.64
2018-07-23T05:36:00.796Z,97424.30
2018-07-23T05:38:29.433Z,97428.66
2018-07-23T05:40:58.004Z,97427.97
2018-07-23T05:43:26.640Z,97426.08
2018-07-23T05:45:55.237Z,97425.63
2018-07-23T05:48:24.337Z,97432.98
2018-07-23T05:50:53.079Z,97431.13
2018-07-23T05:53:21.631Z,97435.31
2018-07-23T05:55:50.175Z,97434.03
2018-07-23T05:58:19.084Z,97437.67
2018-07-23T06:00:48.583Z,97440.61
2018-07-23T06:03:17.189Z,97439.78
2018-07-23T06:05:45.824Z,97442.71
2018-07-23T06:08:14.391Z,97442.02
2018-07-23T06:10:43.778Z,97447.27
2018-07-23T06:13:12.577Z,97453.14
2018-07-23T06:15:41.131Z,97446.94
2018-07-23T06:18:09.819Z,97454.77
2018-07-23T06:20:38.794Z,97451.20
2018-07-23T06:23:08.825Z,97455.73
2018-07-23T06:25:39.745Z,97454.75
2018-07-23T06:28:09.668Z,97453.77
2018-07-23T06:30:39.509Z,97455.93
2018-07-23T06:33:09.360Z,97458.87
2018-07-23T06:35:39.351Z,97461.70
2018-07-23T06:38:08.640Z,97458.27
2018-07-23T06:40:38.045Z,97456.24
2018-07-23T06:43:07.203Z,97461.57
2018-07-23T06:45:35.892Z,97457.30
2018-07-23T06:48:04.608Z,97465.27
2018-07-23T06:50:34.596Z,97470.44
2018-07-23T06:53:05.223Z,97464.20
2018-07-23T06:55:34.968Z,97464.13
2018-07-23T06:58:05.061Z,97465.59
2018-07-23T07:00:34.101Z,97461.87
2018-07-23T07:03:08.396Z,97465.20
2018-07-23T07:05:38.357Z,97467.32
2018-07-23T07:08:07.468Z,97465.74
2018-07-23T07:10:36.951Z,97470.00
2018-07-23T07:13:09.334Z,97471.88
2018-07-23T07:15:41.084Z,97467.62
2018-07-23T07:18:11.064Z,97474.34
2018-07-23T07:20:39.934Z,97469.13
2018-07-23T07:23:08.597Z,97474.09
2018-07-23T07:25:37.156Z,97473.52
2018-07-23T07:28:07.096Z,97472.13
2018-07-23T07:30:35.872Z,97475.00
2018-07-23T07:33:07.240Z,97475.17
2018-07-23T07:35:37.195Z,97479.91
2018-07-23T07:38:05.851Z,97472.73
2018-07-23T07:40:34.423Z,97472.86
2018-07-23T07:43:03.147Z,97476.22
2018-07-23T07:45:33.633Z,97482.23
2018-07-23T07:48:02.370Z,97472.03
2018-07-23T07:50:30.960Z,97482.58
2018-07-23T07:52:59.529Z,97488.64
2018-07-23T07:55:28.382Z,97491.31
2018-07-23T07:57:57.096Z,97484.70
2018-07-23T08:00:27.868Z,97485.16
2018-07-23T08:02:58.488Z,97486.14
2018-07-23T08:05:27.203Z,97480.31
2018-07-23T08:07:55.835Z,97471.50
2018-07-23T08:10:24.399Z,97479.08
2018-07-23T08:12:53.200Z,97478.17
2018-07-23T08:15:24.251Z,97476.77
2018-07-23T08:17:52.960Z,97483.73
2018-07-23T08:20:21.576Z,97489.20
2018-07-23T08:22:51.257Z,97488.08
2018-07-23T08:25:19.835Z,97493.28
2018-07-23T08:27:50.494Z,97488.75
2018-07-23T08:30:19.216Z,97489.20
2018-07-23T08:32:47.804Z,97489.06
2018-07-23T08:35:17.500Z,97491.59
2018-07-23T08:37:47.700Z,97497.02
2018-07-23T08:40:16.245Z,97500.53
2018-07-23T08:42:45.068Z,97497.97
2018-07-23T08:45:13.812Z,97500.98
2018-07-23T08:47:42.373Z,97499.19
2018-07-23T08:50:12.730Z,97502.83
2018-07-23T08:52:43.708Z,97502.95
2018-07-23T08:55:12.408Z,97510.77
2018-07-23T08:57:41.028Z,97507.50
2018-07-23T09:00:10.236Z,97514.95
2018-07-23T09:02:46.097Z,97501.28
2018-07-23T09:05:15.163Z,97511.09
2018-07-23T09:07:51.288Z,97514.06
2018-07-23T09:10:25.648Z,97510.42
2018-07-23T09:12:57.013Z,97510.99
2018-07-23T09:15:26.088Z,97513.41
2018-07-23T09:17:55.196Z,97507.53
2018-07-23T09:20:25.587Z,97515.72
2018-07-23T09:22:54.143Z,97507.66
2018-07-23T09:25:22.835Z,97518.59
2018-07-23T09:27:51.557Z,97519.09
2018-07-23T09:30:55.972Z,97517.83
2018-07-23T09:33:25.428Z,97518.64
2018-07-23T09:35:54.591Z,97513.89
2018-07-23T09:38:23.698Z,97514.91
2018-07-23T09:40:52.999Z,97511.49
2018-07-23T09:43:21.597Z,97510.83
2018-07-23T09:45:50.127Z,97513.12
2018-07-23T09:48:18.835Z,97510.87
2018-07-23T09:50:48.276Z,97517.96
2018-07-23T09:53:17.074Z,97511.03
2018-07-23T09:55:45.741Z,97513.24
2018-07-23T09:58:14.307Z,97522.67
2018-07-23T10:00:48.379Z,97521.46
2018-07-23T10:03:17.950Z,97513.91
2018-07-23T10:05:46.403Z,97518.61
2018-07-23T10:08:15.018Z,97509.89
2018-07-23T10:10:43.583Z,97509.61
2018-07-23T10:13:12.155Z,97505.95
2018-07-23T10:15:40.863Z,97507.31
2018-07-23T10:18:09.472Z,97498.16
2018-07-23T10:20:38.074Z,97501.26
2018-07-23T10:23:06.791Z,97502.05
2018-07-23T10:25:35.488Z,97499.37
2018-07-23T10:28:04.079Z,97498.88
2018-07-23T10:30:32.999Z,97496.39
2018-07-23T10:33:01.580Z,97491.85
2018-07-23T10:35:30.133Z,97493.01
2018-07-23T10:37:58.883Z,97493.16
2018-07-23T10:40:27.427Z,97498.22
2018-07-23T10:42:55.973Z,97489.20
2018-07-23T10:45:24.876Z,97491.48
2018-07-23T10:47:58.669Z,97488.47
2018-07-23T10:50:27.399Z,97482.80
2018-07-23T10:52:56.085Z,97485.18
2018-07-23T10:55:24.647Z,97493.49
2018-07-23T10:57:53.377Z,97490.09
2018-07-23T11:00:21.968Z,97488.21
2018-07-23T11:02:50.567Z,97488.22
2018-07-23T11:05:19.316Z,97489.41
2018-07-23T11:07:48.008Z,97484.65
2018-07-23T11:10:16.635Z,97486.56
2018-07-23T11:12:45.483Z,97483.53
2018-07-23T11:15:14.096Z,97482.38
2018-07-23T11:17:42.682Z,97482.31
2018-07-23T11:20:12.476Z,97477.52
2018-07-23T11:22:41.736Z,97475.92
2018-07-23T11:25:38.810Z,97477.89
2018-07-23T11:27:38.988Z,97478.86
2018-07-23T11:30:07.895Z,97478.45
2018-07-23T11:32:36.899Z,97477.19
2018-07-23T11:35:05.712Z,97470.59
2018-07-23T11:37:34.506Z,97461.95
2018-07-23T11:40:03.075Z,97467.22
2018-07-23T11:42:31.969Z,97475.47
2018-07-23T11:45:00.640Z,97470.00
2018-07-23T11:47:29.303Z,97467.72
2018-07-23T11:49:58.036Z,97469.91
2018-07-23T11:52:26.635Z,97464.09
2018-07-23T11:54:55.184Z,97463.48
2018-07-23T11:57:23.760Z,97466.72
2018-07-23T11:59:52.335Z,97466.53
2018-07-23T12:02:20.988Z,97468.95
2018-07-23T12:04:49.684Z,97463.56
2018-07-23T12:07:18.236Z,97464.83
2018-07-23T12:09:46.917Z,97467.70
2018-07-23T12:12:15.514Z,97464.42
2018-07-23T12:14:44.060Z,97455.07
2018-07-23T12:17:12.767Z,97452.52
2018-07-23T12:19:41.438Z,97452.55
2018-07-23T12:22:10.005Z,97445.49
2018-07-23T12:24:38.576Z,97441.30
2018-07-23T12:27:07.195Z,97436.09
2018-07-23T12:29:35.747Z,97434.43
2018-07-23T12:32:04.300Z,97437.19
2018-07-23T12:34:33.040Z,97437.91
2018-07-23T12:37:01.589Z,97439.95
2018-07-23T12:39:30.239Z,97434.53
2018-07-23T12:41:58.923Z,97436.79
2018-07-23T12:44:27.456Z,97438.41
2018-07-23T12:46:56.108Z,97437.84
2018-07-23T12:49:24.693Z,97444.49
2018-07-23T12:51:53.226Z,97439.70
2018-07-23T12:54:22.144Z,97437.34
2018-07-23T12:56:50.832Z,97432.41
2018-07-23T12:59:19.524Z,97435.52
2018-07-23T13:01:48.083Z,97428.98
2018-07-23T13:04:16.794Z,97436.03
2018-07-23T13:06:45.464Z,97433.61
2018-07-23T13:09:14.141Z,97436.33
2018-07-23T13:11:42.728Z,97441.25
2018-07-23T13:14:11.279Z,97436.41
2018-07-23T13:16:39.815Z,97440.62
2018-07-23T13:19:08.504Z,97436.50
2018-07-23T13:21:37.077Z,97434.41
2018-07-23T13:24:05.864Z,97434.97
2018-07-23T13:26:34.792Z,97428.50
2018-07-23T13:29:03.506Z,97434.66
2018-07-23T13:31:32.269Z,97437.89
2018-07-23T13:34:00.878Z,97433.13
2018-07-23T13:36:29.439Z,97433.01
2018-07-23T13:38:58.007Z,97429.50
2018-07-23T13:41:26.761Z,97424.31
2018-07-23T13:43:55.337Z,97416.52
2018-07-23T13:46:23.942Z,97407.28
2018-07-23T13:48:52.520Z,97415.13
2018-07-23T13:51:21.055Z,97417.18
2018-07-23T13:53:49.615Z,97408.81
2018-07-23T13:56:18.200Z,97411.24
2018-07-23T13:58:46.761Z,97398.97
2018-07-23T14:01:15.354Z,97399.42
2018-07-23T14:03:43.937Z,97405.20
2018-07-23T14:06:12.623Z,97405.94
2018-07-23T14:08:41.188Z,97402.80
2018-07-23T14:11:09.819Z,97406.23
2018-07-23T14:13:38.380Z,97396.02
2018-07-23T14:16:06.978Z,97391.59
2018-07-23T14:18:35.584Z,97393.54
2018-07-23T14:21:04.176Z,97394.44
2018-07-23T14:23:32.943Z,97395.34
2018-07-23T14:26:01.664Z,97390.91
2018-07-23T14:28:30.254Z,97388.09
2018-07-23T14:30:58.805Z,97392.08
2018-07-23T14:33:27.387Z,97388.09
2018-07-23T14:35:55.976Z,97383.50
2018-07-23T14:38:24.755Z,97382.55
2018-07-23T14:40:53.465Z,97379.48
2018-07-23T14:43:22.057Z,97380.19
2018-07-23T14:45:51.089Z,97376.44
2018-07-23T14:48:20.151Z,97371.62
2018-07-23T14:50:48.708Z,97366.05
2018-07-23T14:53:17.295Z,97365.85
2018-07-23T14:55:46.237Z,97372.88
2018-07-23T14:58:14.780Z,97371.47
2018-07-23T15:00:43.371Z,97369.20
2018-07-23T15:24:11.752Z,97358.11
2018-07-23T15:26:40.457Z,97357.80
2018-07-23T15:29:09.260Z,97364.66
2018-07-23T15:31:38.223Z,97367.06
2018-07-23T15:34:07.363Z,97358.73
2018-07-23T15:36:36.308Z,97363.59
2018-07-23T15:39:07.739Z,97353.92
2018-07-23T15:41:36.816Z,97356.79
2018-07-23T15:44:05.739Z,97362.54
2018-07-23T15:46:34.539Z,97359.64
2018-07-23T15:49:04.031Z,97363.64
2018-07-23T15:51:32.633Z,97362.20
2018-07-23T15:54:01.508Z,97365.23
2018-07-23T15:56:30.144Z,97356.83
2018-07-23T15:58:59.068Z,97357.44
2018-07-23T16:01:27.823Z,97346.80
2018-07-23T16:03:56.507Z,97348.95
2018-07-23T16:06:25.543Z,97347.59
2018-07-23T16:08:54.434Z,97350.89
2018-07-23T16:11:23.308Z,97354.80
2018-07-23T16:13:52.340Z,97348.80
2018-07-23T16:16:21.159Z,97344.31
2018-07-23T16:18:50.229Z,97346.45
2018-07-23T16:21:18.852Z,97346.12
2018-07-23T16:23:47.857Z,97347.06
2018-07-23T16:26:16.883Z,97348.25
2018-07-23T16:28:45.615Z,97345.81
2018-07-23T16:31:14.479Z,97348.19
2018-07-23T16:33:43.125Z,97345.67
2018-07-23T16:36:11.940Z,97345.02
2018-07-23T16:38:41.135Z,97343.20
2018-07-23T16:41:09.787Z,97341.08
2018-07-23T16:43:39.203Z,97341.16
2018-07-23T16:46:08.844Z,97335.89
2018-07-23T16:48:37.519Z,97335.38
2018-07-23T16:51:06.972Z,97340.64
2018-07-23T16:53:35.716Z,97342.14
2018-07-23T16:56:05.125Z,97340.50
2018-07-23T16:58:35.076Z,97333.33
2018-07-23T17:01:03.747Z,97332.99
2018-07-23T17:03:32.342Z,97333.81
2018-07-23T17:06:00.979Z,97340.50
2018-07-23T17:08:29.717Z,97340.78
2018-07-23T17:10:58.603Z,97338.05
2018-07-23T17:13:27.745Z,97342.00
2018-07-23T17:15:56.610Z,97345.34
2018-07-23T17:18:25.546Z,97337.80
2018-07-23T17:20:54.323Z,97340.37
2018-07-23T17:23:23.072Z,97340.08
2018-07-23T17:25:51.641Z,97342.73
2018-07-23T17:28:20.291Z,97341.13
2018-07-23T17:30:49.195Z,97342.92
2018-07-23T17:33:17.868Z,97339.20
2018-07-23T17:35:46.783Z,97346.69
2018-07-23T17:38:15.952Z,97344.08
2018-07-23T17:40:44.705Z,97343.92
2018-07-23T17:43:13.477Z,97344.93
2018-07-23T17:45:42.679Z,97345.13
2018-07-23T17:48:11.535Z,97356.05
2018-07-23T17:50:40.172Z,97352.16
2018-07-23T17:53:08.784Z,97357.05
2018-07-23T17:55:37.739Z,97357.38
2018-07-23T17:58:06.928Z,97356.56
2018-07-23T18:00:35.564Z,97359.34
2018-07-23T18:03:04.444Z,97353.80
2018-07-23T18:05:33.265Z,97359.47
2018-07-23T18:08:01.816Z,97361.27
2018-07-23T18:10:31.017Z,97357.03
2018-07-23T18:12:59.793Z,97361.07
2018-07-23T18:15:28.429Z,97358.00
2018-07-23T18:17:57.117Z,97362.70
2018-07-23T18:20:25.719Z,97363.02
2018-07-23T18:22:54.720Z,97360.98
2018-07-23T18:25:23.440Z,97364.70
2018-07-23T18:27:52.161Z,97363.87
2018-07-23T18:30:21.431Z,97368.55
2018-07-23T18:32:50.048Z,97363.50
2018-07-23T18:35:18.904Z,97365.73
2018-07-23T18:37:47.594Z,97366.20
2018-07-23T18:40:16.890Z,97374.21
2018-07-23T18:42:46.572Z,97373.66
2018-07-23T18:45:15.567Z,97374.10
2018-07-23T18:47:44.725Z,97377.14
2018-07-23T18:50:13.959Z,97378.66
2018-07-23T18:52:42.772Z,97379.79
2018-07-23T18:55:11.736Z,97379.91
2018-07-23T18:57:40.416Z,97375.14
2018-07-23T19:00:09.925Z,97380.52
2018-07-23T19:02:39.152Z,97387.78
2018-07-23T19:05:08.312Z,97389.36
2018-07-23T19:07:38.343Z,97392.83
2018-07-23T19:10:10.159Z,97398.87
2018-07-23T19:12:39.319Z,97406.23
2018-07-23T19:15:08.541Z,97406.47
2018-07-23T19:17:38.407Z,97405.56
2018-07-23T19:20:07.305Z,97402.06
2018-07-23T19:22:36.115Z,97413.29
2018-07-23T19:25:05.628Z,97410.45
2018-07-23T19:27:34.590Z,97413.77
2018-07-23T19:30:03.655Z,97416.23
2018-07-23T19:32:32.900Z,97419.52
2018-07-23T19:35:03.545Z,97424.59
2018-07-23T19:37:32.178Z,97423.66
2018-07-23T19:40:00.992Z,97420.81
2018-07-23T19:42:29.701Z,97424.63
2018-07-23T19:44:58.895Z,97423.61
2018-07-23T19:47:28.100Z,97429.02
2018-07-23T19:49:56.980Z,97420.98
2018-07-23T19:52:26.036Z,97427.06
2018-07-23T19:54:54.731Z,97428.75
2018-07-23T19:57:23.607Z,97430.92
2018-07-23T19:59:53.443Z,97434.61
2018-07-23T20:02:22.707Z,97434.61
2018-07-23T20:04:52.564Z,97430.09
2018-07-23T20:07:22.540Z,97428.00
2018-07-23T20:09:52.924Z,97432.08
2018-07-23T20:12:23.024Z,97432.61
2018-07-23T20:14:52.800Z,97426.09
2018-07-23T20:17:22.382Z,97431.53
2018-07-23T20:19:52.677Z,97432.39
2018-07-23T20:22:21.808Z,97433.84
2018-07-23T20:24:50.477Z,97428.58
2018-07-23T20:27:19.751Z,97433.23
2018-07-23T20:29:48.474Z,97434.62
2018-07-23T20:32:17.144Z,97429.53
2018-07-23T20:34:46.004Z,97437.09
2018-07-23T20:37:14.648Z,97425.54
2018-07-23T20:39:43.570Z,97425.30
2018-07-23T20:42:12.693Z,97422.45
2018-07-23T20:44:41.938Z,97422.48
2018-07-23T20:47:10.496Z,97424.80
2018-07-23T20:49:39.360Z,97418.03
2018-07-23T20:52:08.008Z,97422.22
2018-07-23T20:54:37.040Z,97420.02
2018-07-23T20:57:06.569Z,97423.88
2018-07-23T20:59:35.308Z,97420.02
2018-07-23T21:02:04.407Z,97419.95
2018-07-23T21:04:33.211Z,97419.14
2018-07-23T21:07:01.855Z,97411.39
2018-07-23T21:09:31.560Z,97413.05
2018-07-23T21:12:00.178Z,97410.13
2018-07-23T21:14:28.904Z,97414.90
2018-07-23T21:16:57.579Z,97414.17
2018-07-23T21:19:26.565Z,97418.92
2018-07-23T21:21:55.428Z,97415.63
2018-07-23T21:24:24.098Z,97418.00
2018-07-23T21:26:53.204Z,97421.88
2018-07-23T21:29:22.212Z,97416.78
2018-07-23T21:31:51.027Z,97415.63
2018-07-23T21:34:19.869Z,97417.31
2018-07-23T21:36:48.548Z,97417.89
2018-07-23T21:39:17.139Z,97418.38
2018-07-23T21:41:46.075Z,97420.77
2018-07-23T21:44:15.548Z,97419.15
2018-07-23T21:46:44.216Z,97418.56
2018-07-23T21:49:13.255Z,97425.15
2018-07-23T21:51:42.043Z,97424.72
2018-07-23T21:54:10.890Z,97423.94
2018-07-23T21:56:39.703Z,97427.58
2018-07-23T21:59:08.424Z,97421.02
2018-07-23T22:01:37.119Z,97421.05
2018-07-23T22:04:05.860Z,97412.61
2018-07-23T22:06:34.511Z,97419.03
2018-07-23T22:09:03.704Z,97416.95
2018-07-23T22:11:32.469Z,97419.53
2018-07-23T22:14:01.080Z,97418.02
2018-07-23T22:16:29.894Z,97415.31
2018-07-23T22:18:58.659Z,97419.05
2018-07-23T22:21:27.324Z,97418.00
2018-07-23T22:23:56.268Z,97416.70
2018-07-23T22:26:25.412Z,97409.12
2018-07-23T22:28:54.161Z,97411.00
2018-07-23T22:31:22.942Z,97407.59
2018-07-23T22:33:51.815Z,97408.66
2018-07-23T22:36:20.544Z,97408.16
2018-07-23T22:38:49.600Z,97405.95
2018-07-23T22:41:18.320Z,97409.21
2018-07-23T22:43:46.935Z,97408.84
2018-07-23T22:46:15.533Z,97406.23
2018-07-23T22:48:44.263Z,97404.58
2018-07-23T22:51:13.211Z,97401.55
2018-07-23T22:53:41.956Z,97404.58
2018-07-23T22:56:10.696Z,97402.36
2018-07-23T22:58:39.704Z,97395.70
2018-07-23T23:01:08.399Z,97403.52
2018-07-23T23:03:37.079Z,97397.67
2018-07-23T23:06:05.748Z,97400.23
2018-07-23T23:08:34.584Z,97398.11
2018-07-23T23:11:03.343Z,97396.22
2018-07-23T23:13:32.763Z,97392.36
2018-07-23T23:16:01.398Z,97390.94
2018-07-23T23:18:30.148Z,97397.14
2018-07-23T23:20:58.902Z,97390.84
2018-07-23T23:23:27.999Z,97388.95
2018-07-23T23:25:57.288Z,97389.30
2018-07-23T23:28:26.120Z,97391.34
2018-07-23T23:30:54.883Z,97389.22
2018-07-23T23:33:23.584Z,97382.53
2018-07-23T23:35:52.491Z,97386.75
2018-07-23T23:38:21.214Z,97384.63
2018-07-23T23:40:49.939Z,97386.63
2018-07-23T23:43:18.709Z,97389.33
2018-07-23T23:45:47.438Z,97380.79
2018-07-23T23:48:16.609Z,97380.94
2018-07-23T23:50:45.568Z,97375.67
2018-07-23T23:53:14.512Z,97374.82
2018-07-23T23:55:43.600Z,97375.04
2018-07-23T23:58:12.349Z,97377.95
